sensor_id;sensor_type;location;lat;lon;timestamp;P1;durP1;ratioP1;P2;durP2;ratioP2
17145;SDS011;8688;54.444;18.444;2023-02-15T00:02:03;14.70;;;7.23;;
17145;SDS011;8688;54.444;18.444;2023-02-15T00:04:31;15.13;;;7.53;;
17145;SDS011;8688;54.444;18.444;2023-02-15T00:07:13;13.47;;;7.17;;
17145;SDS011;8688;54.444;18.444;2023-02-15T00:09:41;10.63;;;7.63;;
17145;SDS011;8688;54.444;18.444;2023-02-15T00:12:09;12.70;;;7.03;;
17145;SDS011;8688;54.444;18.444;2023-02-15T00:14:36;12.50;;;6.97;;
17145;SDS011;8688;54.444;18.444;2023-02-15T00:17:05;11.77;;;6.70;;
17145;SDS011;8688;54.444;18.444;2023-02-15T00:19:33;10.77;;;6.90;;
17145;SDS011;8688;54.444;18.444;2023-02-15T00:22:00;14.23;;;7.27;;
17145;SDS011;8688;54.444;18.444;2023-02-15T00:24:28;10.27;;;6.17;;
17145;SDS011;8688;54.444;18.444;2023-02-15T00:26:55;10.17;;;5.90;;
17145;SDS011;8688;54.444;18.444;2023-02-15T00:29:23;9.10;;;5.67;;
17145;SDS011;8688;54.444;18.444;2023-02-15T00:31:51;13.70;;;6.40;;
17145;SDS011;8688;54.444;18.444;2023-02-15T00:34:20;9.37;;;6.00;;
17145;SDS011;8688;54.444;18.444;2023-02-15T00:36:49;9.37;;;6.13;;
17145;SDS011;8688;54.444;18.444;2023-02-15T00:39:17;9.23;;;6.43;;
17145;SDS011;8688;54.444;18.444;2023-02-15T00:41:45;10.20;;;6.33;;
17145;SDS011;8688;54.444;18.444;2023-02-15T00:44:13;8.93;;;5.60;;
17145;SDS011;8688;54.444;18.444;2023-02-15T00:46:41;10.80;;;6.43;;
17145;SDS011;8688;54.444;18.444;2023-02-15T00:49:09;13.33;;;6.73;;
17145;SDS011;8688;54.444;18.444;2023-02-15T00:51:38;11.67;;;6.33;;
17145;SDS011;8688;54.444;18.444;2023-02-15T00:54:06;11.07;;;6.03;;
17145;SDS011;8688;54.444;18.444;2023-02-15T00:56:34;12.80;;;6.70;;
17145;SDS011;8688;54.444;18.444;2023-02-15T00:59:01;10.30;;;6.20;;
17145;SDS011;8688;54.444;18.444;2023-02-15T01:01:29;10.33;;;6.17;;
17145;SDS011;8688;54.444;18.444;2023-02-15T01:06:27;12.87;;;6.73;;
17145;SDS011;8688;54.444;18.444;2023-02-15T01:08:56;12.90;;;6.80;;
17145;SDS011;8688;54.444;18.444;2023-02-15T01:11:23;11.93;;;6.90;;
17145;SDS011;8688;54.444;18.444;2023-02-15T01:13:51;12.03;;;7.63;;
17145;SDS011;8688;54.444;18.444;2023-02-15T01:16:23;15.90;;;7.63;;
17145;SDS011;8688;54.444;18.444;2023-02-15T01:18:53;16.00;;;7.13;;
17145;SDS011;8688;54.444;18.444;2023-02-15T01:26:33;15.73;;;7.63;;
17145;SDS011;8688;54.444;18.444;2023-02-15T01:29:00;12.90;;;7.83;;
17145;SDS011;8688;54.444;18.444;2023-02-15T01:31:28;16.33;;;8.33;;
17145;SDS011;8688;54.444;18.444;2023-02-15T01:33:55;15.90;;;9.00;;
17145;SDS011;8688;54.444;18.444;2023-02-15T01:36:23;13.50;;;7.87;;
17145;SDS011;8688;54.444;18.444;2023-02-15T01:38:50;17.10;;;8.07;;
17145;SDS011;8688;54.444;18.444;2023-02-15T01:41:18;14.20;;;8.73;;
17145;SDS011;8688;54.444;18.444;2023-02-15T01:43:54;15.43;;;8.50;;
17145;SDS011;8688;54.444;18.444;2023-02-15T01:46:23;17.37;;;8.53;;
17145;SDS011;8688;54.444;18.444;2023-02-15T01:48:56;19.70;;;8.00;;
17145;SDS011;8688;54.444;18.444;2023-02-15T01:51:29;13.97;;;7.83;;
17145;SDS011;8688;54.444;18.444;2023-02-15T01:54:01;14.30;;;7.50;;
17145;SDS011;8688;54.444;18.444;2023-02-15T01:56:33;15.77;;;8.03;;
17145;SDS011;8688;54.444;18.444;2023-02-15T01:59:04;16.17;;;8.20;;
17145;SDS011;8688;54.444;18.444;2023-02-15T02:01:35;16.83;;;9.27;;
17145;SDS011;8688;54.444;18.444;2023-02-15T02:04:05;17.20;;;8.30;;
17145;SDS011;8688;54.444;18.444;2023-02-15T02:06:43;14.87;;;8.07;;
17145;SDS011;8688;54.444;18.444;2023-02-15T02:09:12;13.50;;;8.07;;
17145;SDS011;8688;54.444;18.444;2023-02-15T02:11:40;14.27;;;8.43;;
17145;SDS011;8688;54.444;18.444;2023-02-15T02:14:12;14.37;;;8.60;;
17145;SDS011;8688;54.444;18.444;2023-02-15T02:16:42;17.43;;;8.90;;
17145;SDS011;8688;54.444;18.444;2023-02-15T02:22:25;19.00;;;9.53;;
17145;SDS011;8688;54.444;18.444;2023-02-15T02:28:13;15.07;;;8.87;;
17145;SDS011;8688;54.444;18.444;2023-02-15T02:31:09;19.80;;;10.47;;
17145;SDS011;8688;54.444;18.444;2023-02-15T02:33:58;20.33;;;9.90;;
17145;SDS011;8688;54.444;18.444;2023-02-15T02:36:33;23.77;;;10.33;;
17145;SDS011;8688;54.444;18.444;2023-02-15T02:39:11;21.67;;;10.93;;
17145;SDS011;8688;54.444;18.444;2023-02-15T02:41:48;22.03;;;10.53;;
17145;SDS011;8688;54.444;18.444;2023-02-15T02:44:22;20.23;;;10.50;;
17145;SDS011;8688;54.444;18.444;2023-02-15T02:46:54;20.97;;;10.60;;
17145;SDS011;8688;54.444;18.444;2023-02-15T02:49:31;19.20;;;10.70;;
17145;SDS011;8688;54.444;18.444;2023-02-15T02:52:01;20.13;;;10.23;;
17145;SDS011;8688;54.444;18.444;2023-02-15T02:54:31;19.43;;;10.37;;
17145;SDS011;8688;54.444;18.444;2023-02-15T02:57:01;17.83;;;10.07;;
17145;SDS011;8688;54.444;18.444;2023-02-15T02:59:33;17.33;;;10.37;;
17145;SDS011;8688;54.444;18.444;2023-02-15T03:02:05;19.20;;;10.60;;
17145;SDS011;8688;54.444;18.444;2023-02-15T03:04:39;18.03;;;10.17;;
17145;SDS011;8688;54.444;18.444;2023-02-15T03:07:12;23.47;;;10.90;;
17145;SDS011;8688;54.444;18.444;2023-02-15T03:09:47;21.43;;;10.10;;
17145;SDS011;8688;54.444;18.444;2023-02-15T03:12:19;17.07;;;10.10;;
17145;SDS011;8688;54.444;18.444;2023-02-15T03:14:49;22.23;;;11.10;;
17145;SDS011;8688;54.444;18.444;2023-02-15T03:17:19;19.63;;;11.13;;
17145;SDS011;8688;54.444;18.444;2023-02-15T03:19:51;20.77;;;11.40;;
17145;SDS011;8688;54.444;18.444;2023-02-15T03:22:24;22.00;;;11.67;;
17145;SDS011;8688;54.444;18.444;2023-02-15T03:24:56;21.53;;;11.70;;
17145;SDS011;8688;54.444;18.444;2023-02-15T03:27:27;21.30;;;12.80;;
17145;SDS011;8688;54.444;18.444;2023-02-15T03:30:00;22.73;;;12.37;;
17145;SDS011;8688;54.444;18.444;2023-02-15T03:32:31;22.43;;;12.20;;
17145;SDS011;8688;54.444;18.444;2023-02-15T03:35:02;21.00;;;11.93;;
17145;SDS011;8688;54.444;18.444;2023-02-15T03:37:32;22.17;;;12.03;;
17145;SDS011;8688;54.444;18.444;2023-02-15T03:40:03;21.13;;;11.80;;
17145;SDS011;8688;54.444;18.444;2023-02-15T03:42:51;23.67;;;10.97;;
17145;SDS011;8688;54.444;18.444;2023-02-15T03:45:27;20.40;;;10.23;;
17145;SDS011;8688;54.444;18.444;2023-02-15T03:47:57;20.73;;;10.93;;
17145;SDS011;8688;54.444;18.444;2023-02-15T03:50:29;19.23;;;11.00;;
17145;SDS011;8688;54.444;18.444;2023-02-15T03:53:17;19.37;;;11.20;;
17145;SDS011;8688;54.444;18.444;2023-02-15T03:55:47;19.17;;;9.33;;
17145;SDS011;8688;54.444;18.444;2023-02-15T03:58:16;18.10;;;9.47;;
17145;SDS011;8688;54.444;18.444;2023-02-15T04:01:03;19.37;;;9.63;;
17145;SDS011;8688;54.444;18.444;2023-02-15T04:03:55;18.63;;;10.10;;
17145;SDS011;8688;54.444;18.444;2023-02-15T04:06:28;17.80;;;9.90;;
17145;SDS011;8688;54.444;18.444;2023-02-15T04:08:56;16.67;;;9.30;;
17145;SDS011;8688;54.444;18.444;2023-02-15T04:11:52;18.27;;;9.83;;
17145;SDS011;8688;54.444;18.444;2023-02-15T04:14:19;15.53;;;8.87;;
17145;SDS011;8688;54.444;18.444;2023-02-15T04:17:00;16.87;;;9.50;;
17145;SDS011;8688;54.444;18.444;2023-02-15T04:19:31;17.83;;;9.83;;
17145;SDS011;8688;54.444;18.444;2023-02-15T04:22:17;16.83;;;10.03;;
17145;SDS011;8688;54.444;18.444;2023-02-15T04:25:02;16.33;;;10.53;;
17145;SDS011;8688;54.444;18.444;2023-02-15T04:27:36;16.00;;;9.37;;
17145;SDS011;8688;54.444;18.444;2023-02-15T04:30:04;18.07;;;9.17;;
17145;SDS011;8688;54.444;18.444;2023-02-15T04:32:32;22.63;;;9.37;;
17145;SDS011;8688;54.444;18.444;2023-02-15T04:35:00;20.17;;;10.07;;
17145;SDS011;8688;54.444;18.444;2023-02-15T04:37:29;17.27;;;9.20;;
17145;SDS011;8688;54.444;18.444;2023-02-15T04:39:56;15.47;;;8.97;;
17145;SDS011;8688;54.444;18.444;2023-02-15T04:42:24;18.33;;;9.17;;
17145;SDS011;8688;54.444;18.444;2023-02-15T04:44:52;16.60;;;8.90;;
17145;SDS011;8688;54.444;18.444;2023-02-15T04:47:20;15.60;;;8.83;;
17145;SDS011;8688;54.444;18.444;2023-02-15T04:49:47;15.50;;;9.10;;
17145;SDS011;8688;54.444;18.444;2023-02-15T04:52:15;14.83;;;8.63;;
17145;SDS011;8688;54.444;18.444;2023-02-15T04:54:44;15.87;;;9.23;;
17145;SDS011;8688;54.444;18.444;2023-02-15T04:57:12;15.77;;;9.00;;
17145;SDS011;8688;54.444;18.444;2023-02-15T04:59:39;14.93;;;8.57;;
17145;SDS011;8688;54.444;18.444;2023-02-15T05:02:07;17.83;;;8.77;;
17145;SDS011;8688;54.444;18.444;2023-02-15T05:04:35;15.07;;;8.73;;
17145;SDS011;8688;54.444;18.444;2023-02-15T05:07:02;17.27;;;8.33;;
17145;SDS011;8688;54.444;18.444;2023-02-15T05:09:30;16.37;;;8.10;;
17145;SDS011;8688;54.444;18.444;2023-02-15T05:11:58;16.70;;;8.40;;
17145;SDS011;8688;54.444;18.444;2023-02-15T05:14:26;14.77;;;7.40;;
17145;SDS011;8688;54.444;18.444;2023-02-15T05:16:53;15.17;;;7.57;;
17145;SDS011;8688;54.444;18.444;2023-02-15T05:19:21;12.90;;;7.50;;
17145;SDS011;8688;54.444;18.444;2023-02-15T05:21:50;13.13;;;8.03;;
17145;SDS011;8688;54.444;18.444;2023-02-15T05:24:17;15.13;;;7.67;;
17145;SDS011;8688;54.444;18.444;2023-02-15T05:27:04;13.77;;;7.20;;
17145;SDS011;8688;54.444;18.444;2023-02-15T05:29:49;15.70;;;7.43;;
17145;SDS011;8688;54.444;18.444;2023-02-15T05:32:16;16.17;;;7.13;;
17145;SDS011;8688;54.444;18.444;2023-02-15T05:34:44;12.83;;;7.57;;
17145;SDS011;8688;54.444;18.444;2023-02-15T05:37:11;15.67;;;7.80;;
17145;SDS011;8688;54.444;18.444;2023-02-15T05:39:38;13.73;;;7.53;;
17145;SDS011;8688;54.444;18.444;2023-02-15T05:42:08;13.40;;;7.53;;
17145;SDS011;8688;54.444;18.444;2023-02-15T05:44:35;13.30;;;7.40;;
17145;SDS011;8688;54.444;18.444;2023-02-15T05:47:03;15.10;;;7.53;;
17145;SDS011;8688;54.444;18.444;2023-02-15T05:49:32;14.43;;;7.70;;
17145;SDS011;8688;54.444;18.444;2023-02-15T05:52:00;16.63;;;8.07;;
17145;SDS011;8688;54.444;18.444;2023-02-15T05:54:27;15.70;;;8.40;;
17145;SDS011;8688;54.444;18.444;2023-02-15T05:56:55;17.00;;;8.07;;
17145;SDS011;8688;54.444;18.444;2023-02-15T05:59:24;15.27;;;7.67;;
17145;SDS011;8688;54.444;18.444;2023-02-15T06:01:51;14.67;;;7.53;;
17145;SDS011;8688;54.444;18.444;2023-02-15T06:04:19;17.80;;;8.07;;
17145;SDS011;8688;54.444;18.444;2023-02-15T06:06:46;14.47;;;8.00;;
17145;SDS011;8688;54.444;18.444;2023-02-15T06:09:14;16.27;;;8.23;;
17145;SDS011;8688;54.444;18.444;2023-02-15T06:11:43;16.63;;;7.73;;
17145;SDS011;8688;54.444;18.444;2023-02-15T06:14:11;14.63;;;8.07;;
17145;SDS011;8688;54.444;18.444;2023-02-15T06:16:40;13.47;;;8.20;;
17145;SDS011;8688;54.444;18.444;2023-02-15T06:19:07;15.73;;;7.70;;
17145;SDS011;8688;54.444;18.444;2023-02-15T06:21:35;14.70;;;8.00;;
17145;SDS011;8688;54.444;18.444;2023-02-15T06:24:02;17.03;;;8.60;;
17145;SDS011;8688;54.444;18.444;2023-02-15T06:26:30;17.17;;;8.20;;
17145;SDS011;8688;54.444;18.444;2023-02-15T06:28:57;12.57;;;8.07;;
17145;SDS011;8688;54.444;18.444;2023-02-15T06:31:25;18.03;;;8.83;;
17145;SDS011;8688;54.444;18.444;2023-02-15T06:33:54;17.17;;;8.70;;
17145;SDS011;8688;54.444;18.444;2023-02-15T06:36:26;17.80;;;8.27;;
17145;SDS011;8688;54.444;18.444;2023-02-15T06:38:54;18.13;;;8.73;;
17145;SDS011;8688;54.444;18.444;2023-02-15T06:41:21;15.27;;;8.30;;
17145;SDS011;8688;54.444;18.444;2023-02-15T06:43:49;17.50;;;8.80;;
17145;SDS011;8688;54.444;18.444;2023-02-15T06:46:17;16.63;;;8.73;;
17145;SDS011;8688;54.444;18.444;2023-02-15T06:48:44;14.63;;;8.43;;
17145;SDS011;8688;54.444;18.444;2023-02-15T06:51:13;17.43;;;8.87;;
17145;SDS011;8688;54.444;18.444;2023-02-15T06:53:40;16.60;;;8.87;;
17145;SDS011;8688;54.444;18.444;2023-02-15T06:56:08;16.13;;;8.43;;
17145;SDS011;8688;54.444;18.444;2023-02-15T06:58:36;16.47;;;8.57;;
17145;SDS011;8688;54.444;18.444;2023-02-15T07:01:04;18.67;;;9.10;;
17145;SDS011;8688;54.444;18.444;2023-02-15T07:03:32;18.70;;;8.90;;
17145;SDS011;8688;54.444;18.444;2023-02-15T07:06:01;16.23;;;9.27;;
17145;SDS011;8688;54.444;18.444;2023-02-15T07:08:34;17.10;;;9.00;;
17145;SDS011;8688;54.444;18.444;2023-02-15T07:11:02;17.57;;;9.57;;
17145;SDS011;8688;54.444;18.444;2023-02-15T07:13:44;16.23;;;8.90;;
17145;SDS011;8688;54.444;18.444;2023-02-15T07:16:12;17.17;;;8.80;;
17145;SDS011;8688;54.444;18.444;2023-02-15T07:18:39;16.50;;;9.63;;
17145;SDS011;8688;54.444;18.444;2023-02-15T07:21:07;16.23;;;9.27;;
17145;SDS011;8688;54.444;18.444;2023-02-15T07:23:36;19.37;;;9.40;;
17145;SDS011;8688;54.444;18.444;2023-02-15T07:26:05;18.77;;;9.27;;
17145;SDS011;8688;54.444;18.444;2023-02-15T07:28:33;15.77;;;8.97;;
17145;SDS011;8688;54.444;18.444;2023-02-15T07:31:01;14.37;;;8.40;;
17145;SDS011;8688;54.444;18.444;2023-02-15T07:33:30;16.37;;;9.00;;
17145;SDS011;8688;54.444;18.444;2023-02-15T07:35:57;17.60;;;8.63;;
17145;SDS011;8688;54.444;18.444;2023-02-15T07:38:27;15.70;;;8.97;;
17145;SDS011;8688;54.444;18.444;2023-02-15T07:40:59;14.27;;;8.83;;
17145;SDS011;8688;54.444;18.444;2023-02-15T07:43:26;15.23;;;8.50;;
17145;SDS011;8688;54.444;18.444;2023-02-15T07:45:54;17.70;;;8.93;;
17145;SDS011;8688;54.444;18.444;2023-02-15T07:48:25;18.57;;;8.90;;
17145;SDS011;8688;54.444;18.444;2023-02-15T07:50:53;17.93;;;8.80;;
17145;SDS011;8688;54.444;18.444;2023-02-15T07:53:20;18.00;;;9.03;;
17145;SDS011;8688;54.444;18.444;2023-02-15T07:55:47;15.37;;;8.90;;
17145;SDS011;8688;54.444;18.444;2023-02-15T07:58:16;14.73;;;9.33;;
17145;SDS011;8688;54.444;18.444;2023-02-15T08:00:44;15.23;;;8.77;;
17145;SDS011;8688;54.444;18.444;2023-02-15T08:03:23;15.40;;;8.90;;
17145;SDS011;8688;54.444;18.444;2023-02-15T08:05:55;20.43;;;9.50;;
17145;SDS011;8688;54.444;18.444;2023-02-15T08:08:24;15.83;;;8.93;;
17145;SDS011;8688;54.444;18.444;2023-02-15T08:10:58;15.77;;;8.80;;
17145;SDS011;8688;54.444;18.444;2023-02-15T08:13:46;18.83;;;10.23;;
17145;SDS011;8688;54.444;18.444;2023-02-15T08:16:23;18.80;;;9.67;;
17145;SDS011;8688;54.444;18.444;2023-02-15T08:18:51;18.13;;;8.93;;
17145;SDS011;8688;54.444;18.444;2023-02-15T08:21:19;18.60;;;9.67;;
17145;SDS011;8688;54.444;18.444;2023-02-15T08:23:47;17.17;;;10.33;;
17145;SDS011;8688;54.444;18.444;2023-02-15T08:26:14;18.67;;;9.87;;
17145;SDS011;8688;54.444;18.444;2023-02-15T08:28:43;21.17;;;10.73;;
17145;SDS011;8688;54.444;18.444;2023-02-15T08:31:13;18.30;;;9.80;;
17145;SDS011;8688;54.444;18.444;2023-02-15T08:33:41;22.93;;;11.00;;
17145;SDS011;8688;54.444;18.444;2023-02-15T08:36:10;17.03;;;9.37;;
17145;SDS011;8688;54.444;18.444;2023-02-15T08:38:38;18.17;;;9.43;;
17145;SDS011;8688;54.444;18.444;2023-02-15T08:41:10;18.53;;;10.43;;
17145;SDS011;8688;54.444;18.444;2023-02-15T08:43:38;19.07;;;9.80;;
17145;SDS011;8688;54.444;18.444;2023-02-15T08:46:06;18.83;;;10.10;;
17145;SDS011;8688;54.444;18.444;2023-02-15T08:48:35;17.63;;;10.90;;
17145;SDS011;8688;54.444;18.444;2023-02-15T08:51:04;19.03;;;10.57;;
17145;SDS011;8688;54.444;18.444;2023-02-15T08:53:33;20.10;;;10.60;;
17145;SDS011;8688;54.444;18.444;2023-02-15T08:56:00;21.30;;;10.93;;
17145;SDS011;8688;54.444;18.444;2023-02-15T08:58:28;21.27;;;10.83;;
17145;SDS011;8688;54.444;18.444;2023-02-15T09:00:57;21.73;;;11.20;;
17145;SDS011;8688;54.444;18.444;2023-02-15T09:03:24;19.40;;;11.83;;
17145;SDS011;8688;54.444;18.444;2023-02-15T09:05:57;23.00;;;10.80;;
17145;SDS011;8688;54.444;18.444;2023-02-15T09:08:26;23.50;;;12.57;;
17145;SDS011;8688;54.444;18.444;2023-02-15T09:10:54;24.83;;;12.70;;
17145;SDS011;8688;54.444;18.444;2023-02-15T09:13:31;21.90;;;11.90;;
17145;SDS011;8688;54.444;18.444;2023-02-15T09:15:59;24.63;;;12.63;;
17145;SDS011;8688;54.444;18.444;2023-02-15T09:18:29;22.53;;;12.70;;
17145;SDS011;8688;54.444;18.444;2023-02-15T09:20:58;20.90;;;10.57;;
17145;SDS011;8688;54.444;18.444;2023-02-15T09:23:30;20.80;;;12.80;;
17145;SDS011;8688;54.444;18.444;2023-02-15T09:26:01;23.80;;;13.37;;
17145;SDS011;8688;54.444;18.444;2023-02-15T09:28:30;23.43;;;12.70;;
17145;SDS011;8688;54.444;18.444;2023-02-15T09:31:04;22.73;;;12.30;;
17145;SDS011;8688;54.444;18.444;2023-02-15T09:33:33;24.10;;;12.03;;
17145;SDS011;8688;54.444;18.444;2023-02-15T09:36:03;22.87;;;12.47;;
17145;SDS011;8688;54.444;18.444;2023-02-15T09:38:31;26.73;;;13.20;;
17145;SDS011;8688;54.444;18.444;2023-02-15T09:41:03;20.03;;;11.20;;
17145;SDS011;8688;54.444;18.444;2023-02-15T09:43:51;22.73;;;12.80;;
17145;SDS011;8688;54.444;18.444;2023-02-15T09:46:35;24.17;;;12.57;;
17145;SDS011;8688;54.444;18.444;2023-02-15T09:49:15;23.33;;;12.23;;
17145;SDS011;8688;54.444;18.444;2023-02-15T09:51:55;23.47;;;13.60;;
17145;SDS011;8688;54.444;18.444;2023-02-15T09:54:48;23.83;;;12.73;;
17145;SDS011;8688;54.444;18.444;2023-02-15T09:57:26;28.57;;;12.83;;
17145;SDS011;8688;54.444;18.444;2023-02-15T10:00:00;24.53;;;13.00;;
17145;SDS011;8688;54.444;18.444;2023-02-15T10:02:35;24.73;;;13.33;;
17145;SDS011;8688;54.444;18.444;2023-02-15T10:05:19;22.47;;;13.23;;
17145;SDS011;8688;54.444;18.444;2023-02-15T10:08:05;26.53;;;13.43;;
17145;SDS011;8688;54.444;18.444;2023-02-15T10:10:53;27.60;;;14.37;;
17145;SDS011;8688;54.444;18.444;2023-02-15T10:13:49;23.13;;;13.47;;
17145;SDS011;8688;54.444;18.444;2023-02-15T10:16:26;21.60;;;12.93;;
17145;SDS011;8688;54.444;18.444;2023-02-15T10:19:07;28.47;;;12.57;;
17145;SDS011;8688;54.444;18.444;2023-02-15T10:21:48;25.67;;;13.20;;
17145;SDS011;8688;54.444;18.444;2023-02-15T10:27:19;26.00;;;12.13;;
17145;SDS011;8688;54.444;18.444;2023-02-15T10:29:50;23.97;;;12.43;;
17145;SDS011;8688;54.444;18.444;2023-02-15T10:32:30;22.20;;;12.43;;
17145;SDS011;8688;54.444;18.444;2023-02-15T10:35:06;23.03;;;12.03;;
17145;SDS011;8688;54.444;18.444;2023-02-15T10:37:46;27.20;;;13.27;;
17145;SDS011;8688;54.444;18.444;2023-02-15T10:40:25;22.33;;;14.13;;
17145;SDS011;8688;54.444;18.444;2023-02-15T10:43:04;25.63;;;12.73;;
17145;SDS011;8688;54.444;18.444;2023-02-15T10:45:53;21.97;;;11.00;;
17145;SDS011;8688;54.444;18.444;2023-02-15T10:48:37;24.47;;;14.30;;
17145;SDS011;8688;54.444;18.444;2023-02-15T10:51:25;25.03;;;13.37;;
17145;SDS011;8688;54.444;18.444;2023-02-15T10:54:03;26.23;;;12.20;;
17145;SDS011;8688;54.444;18.444;2023-02-15T10:56:41;26.60;;;13.30;;
17145;SDS011;8688;54.444;18.444;2023-02-15T10:59:18;22.90;;;12.73;;
17145;SDS011;8688;54.444;18.444;2023-02-15T11:01:58;25.87;;;13.77;;
17145;SDS011;8688;54.444;18.444;2023-02-15T11:07:20;25.90;;;14.53;;
17145;SDS011;8688;54.444;18.444;2023-02-15T11:09:51;26.43;;;14.73;;
17145;SDS011;8688;54.444;18.444;2023-02-15T11:12:24;25.73;;;15.07;;
17145;SDS011;8688;54.444;18.444;2023-02-15T11:14:56;27.10;;;15.00;;
17145;SDS011;8688;54.444;18.444;2023-02-15T11:17:30;29.77;;;14.60;;
17145;SDS011;8688;54.444;18.444;2023-02-15T11:20:07;29.30;;;15.20;;
17145;SDS011;8688;54.444;18.444;2023-02-15T11:22:43;27.33;;;15.40;;
17145;SDS011;8688;54.444;18.444;2023-02-15T11:25:17;30.87;;;15.03;;
17145;SDS011;8688;54.444;18.444;2023-02-15T11:27:48;26.40;;;15.10;;
17145;SDS011;8688;54.444;18.444;2023-02-15T11:30:17;27.40;;;15.50;;
17145;SDS011;8688;54.444;18.444;2023-02-15T11:32:47;28.50;;;14.90;;
17145;SDS011;8688;54.444;18.444;2023-02-15T11:35:20;26.03;;;14.97;;
17145;SDS011;8688;54.444;18.444;2023-02-15T11:37:54;30.33;;;15.43;;
17145;SDS011;8688;54.444;18.444;2023-02-15T11:40:26;26.90;;;15.77;;
17145;SDS011;8688;54.444;18.444;2023-02-15T11:42:58;29.67;;;15.47;;
17145;SDS011;8688;54.444;18.444;2023-02-15T11:45:30;27.63;;;15.97;;
17145;SDS011;8688;54.444;18.444;2023-02-15T11:47:59;31.20;;;16.70;;
17145;SDS011;8688;54.444;18.444;2023-02-15T11:50:31;29.07;;;16.10;;
17145;SDS011;8688;54.444;18.444;2023-02-15T11:53:00;32.30;;;16.83;;
17145;SDS011;8688;54.444;18.444;2023-02-15T11:55:30;29.73;;;16.27;;
17145;SDS011;8688;54.444;18.444;2023-02-15T11:58:04;28.57;;;17.03;;
17145;SDS011;8688;54.444;18.444;2023-02-15T12:00:42;25.70;;;16.00;;
17145;SDS011;8688;54.444;18.444;2023-02-15T12:03:13;28.23;;;16.53;;
17145;SDS011;8688;54.444;18.444;2023-02-15T12:05:44;28.67;;;17.50;;
17145;SDS011;8688;54.444;18.444;2023-02-15T12:08:16;31.37;;;17.23;;
17145;SDS011;8688;54.444;18.444;2023-02-15T12:10:58;33.17;;;17.23;;
17145;SDS011;8688;54.444;18.444;2023-02-15T12:13:34;33.13;;;17.33;;
17145;SDS011;8688;54.444;18.444;2023-02-15T12:16:22;31.27;;;16.33;;
17145;SDS011;8688;54.444;18.444;2023-02-15T12:18:59;28.73;;;16.67;;
17145;SDS011;8688;54.444;18.444;2023-02-15T12:21:56;27.43;;;17.10;;
17145;SDS011;8688;54.444;18.444;2023-02-15T12:24:25;31.17;;;17.70;;
17145;SDS011;8688;54.444;18.444;2023-02-15T12:26:58;33.80;;;19.30;;
17145;SDS011;8688;54.444;18.444;2023-02-15T12:29:31;30.33;;;17.03;;
17145;SDS011;8688;54.444;18.444;2023-02-15T12:32:05;26.70;;;16.97;;
17145;SDS011;8688;54.444;18.444;2023-02-15T12:34:36;29.20;;;16.67;;
17145;SDS011;8688;54.444;18.444;2023-02-15T12:37:09;31.43;;;16.63;;
17145;SDS011;8688;54.444;18.444;2023-02-15T12:39:50;28.20;;;16.33;;
17145;SDS011;8688;54.444;18.444;2023-02-15T12:42:19;28.17;;;17.03;;
17145;SDS011;8688;54.444;18.444;2023-02-15T12:44:59;29.07;;;16.73;;
17145;SDS011;8688;54.444;18.444;2023-02-15T12:47:27;30.67;;;17.87;;
17145;SDS011;8688;54.444;18.444;2023-02-15T12:52:43;25.77;;;15.90;;
17145;SDS011;8688;54.444;18.444;2023-02-15T12:55:22;33.10;;;18.50;;
17145;SDS011;8688;54.444;18.444;2023-02-15T12:58:04;32.53;;;18.47;;
17145;SDS011;8688;54.444;18.444;2023-02-15T13:00:35;31.40;;;19.80;;
17145;SDS011;8688;54.444;18.444;2023-02-15T13:03:02;30.87;;;18.83;;
17145;SDS011;8688;54.444;18.444;2023-02-15T13:05:31;90.10;;;45.80;;
17145;SDS011;8688;54.444;18.444;2023-02-15T13:08:02;43.43;;;24.53;;
17145;SDS011;8688;54.444;18.444;2023-02-15T13:10:40;29.53;;;18.00;;
17145;SDS011;8688;54.444;18.444;2023-02-15T13:13:09;38.13;;;22.27;;
17145;SDS011;8688;54.444;18.444;2023-02-15T13:15:40;29.50;;;17.07;;
17145;SDS011;8688;54.444;18.444;2023-02-15T13:18:12;34.67;;;16.93;;
17145;SDS011;8688;54.444;18.444;2023-02-15T13:20:43;28.30;;;17.53;;
17145;SDS011;8688;54.444;18.444;2023-02-15T13:23:16;30.77;;;17.40;;
17145;SDS011;8688;54.444;18.444;2023-02-15T13:25:54;32.67;;;19.13;;
17145;SDS011;8688;54.444;18.444;2023-02-15T13:28:25;25.97;;;16.53;;
17145;SDS011;8688;54.444;18.444;2023-02-15T13:30:59;27.63;;;15.43;;
17145;SDS011;8688;54.444;18.444;2023-02-15T13:33:29;33.60;;;19.30;;
17145;SDS011;8688;54.444;18.444;2023-02-15T13:36:02;29.10;;;17.03;;
17145;SDS011;8688;54.444;18.444;2023-02-15T13:38:40;26.70;;;16.63;;
17145;SDS011;8688;54.444;18.444;2023-02-15T13:41:25;35.27;;;18.57;;
17145;SDS011;8688;54.444;18.444;2023-02-15T13:44:01;25.03;;;15.37;;
17145;SDS011;8688;54.444;18.444;2023-02-15T13:46:47;28.57;;;16.93;;
17145;SDS011;8688;54.444;18.444;2023-02-15T13:49:32;31.90;;;19.73;;
17145;SDS011;8688;54.444;18.444;2023-02-15T13:52:14;27.10;;;15.87;;
17145;SDS011;8688;54.444;18.444;2023-02-15T14:00:47;26.60;;;15.47;;
17145;SDS011;8688;54.444;18.444;2023-02-15T14:03:31;28.67;;;15.47;;
17145;SDS011;8688;54.444;18.444;2023-02-15T14:06:38;26.07;;;15.73;;
17145;SDS011;8688;54.444;18.444;2023-02-15T14:09:17;26.93;;;15.53;;
17145;SDS011;8688;54.444;18.444;2023-02-15T14:11:55;24.23;;;13.77;;
17145;SDS011;8688;54.444;18.444;2023-02-15T14:14:45;26.87;;;15.80;;
17145;SDS011;8688;54.444;18.444;2023-02-15T14:17:28;28.93;;;16.27;;
17145;SDS011;8688;54.444;18.444;2023-02-15T14:20:06;26.70;;;15.93;;
17145;SDS011;8688;54.444;18.444;2023-02-15T14:22:44;26.07;;;15.17;;
17145;SDS011;8688;54.444;18.444;2023-02-15T14:25:18;28.57;;;16.10;;
17145;SDS011;8688;54.444;18.444;2023-02-15T14:27:56;27.53;;;16.20;;
17145;SDS011;8688;54.444;18.444;2023-02-15T14:30:29;31.00;;;17.37;;
17145;SDS011;8688;54.444;18.444;2023-02-15T14:32:59;46.73;;;26.27;;
17145;SDS011;8688;54.444;18.444;2023-02-15T14:35:32;42.90;;;24.57;;
17145;SDS011;8688;54.444;18.444;2023-02-15T14:38:02;109.70;;;46.33;;
17145;SDS011;8688;54.444;18.444;2023-02-15T14:40:43;73.30;;;36.63;;
17145;SDS011;8688;54.444;18.444;2023-02-15T14:43:31;37.37;;;20.93;;
17145;SDS011;8688;54.444;18.444;2023-02-15T14:46:14;36.63;;;20.37;;
17145;SDS011;8688;54.444;18.444;2023-02-15T14:48:48;30.03;;;19.00;;
17145;SDS011;8688;54.444;18.444;2023-02-15T14:57:26;35.47;;;19.70;;
17145;SDS011;8688;54.444;18.444;2023-02-15T14:59:57;29.53;;;16.70;;
17145;SDS011;8688;54.444;18.444;2023-02-15T15:02:30;30.67;;;17.60;;
17145;SDS011;8688;54.444;18.444;2023-02-15T15:05:09;33.87;;;18.93;;
17145;SDS011;8688;54.444;18.444;2023-02-15T15:07:42;35.23;;;18.80;;
17145;SDS011;8688;54.444;18.444;2023-02-15T15:16:31;36.77;;;19.90;;
17145;SDS011;8688;54.444;18.444;2023-02-15T15:22:29;36.07;;;18.47;;
17145;SDS011;8688;54.444;18.444;2023-02-15T15:24:59;38.50;;;20.50;;
17145;SDS011;8688;54.444;18.444;2023-02-15T15:33:25;37.67;;;18.70;;
17145;SDS011;8688;54.444;18.444;2023-02-15T15:40:01;36.50;;;20.20;;
17145;SDS011;8688;54.444;18.444;2023-02-15T15:49:12;35.07;;;20.57;;
17145;SDS011;8688;54.444;18.444;2023-02-15T15:51:42;37.20;;;20.23;;
17145;SDS011;8688;54.444;18.444;2023-02-15T15:54:12;34.40;;;20.33;;
17145;SDS011;8688;54.444;18.444;2023-02-15T15:56:43;40.73;;;21.70;;
17145;SDS011;8688;54.444;18.444;2023-02-15T15:59:17;33.73;;;20.87;;
17145;SDS011;8688;54.444;18.444;2023-02-15T16:01:47;37.70;;;21.23;;